createdAt,value
2024-05-09T00:00:42.903Z,50.69
2024-05-09T00:01:48.562Z,50.81
2024-05-09T00:02:54.105Z,50.71
2024-05-09T00:03:59.638Z,50.71
2024-05-09T00:05:05.572Z,50.21
2024-05-09T00:06:11.647Z,50.59
2024-05-09T00:07:17.125Z,50.6
2024-05-09T00:08:22.744Z,50.65
2024-05-09T00:09:28.174Z,50.7
2024-05-09T00:10:44.362Z,50.52
2024-05-09T00:11:50.302Z,50.61
2024-05-09T00:12:55.756Z,50.6
2024-05-09T00:14:01.264Z,50.63
2024-05-09T00:15:06.725Z,50.59
2024-05-09T00:16:12.265Z,50.6
2024-05-09T00:17:18.033Z,50.49
2024-05-09T00:18:23.990Z,50.6
2024-05-09T00:19:29.786Z,50.3
2024-05-09T00:20:43.034Z,50.37
2024-05-09T00:21:48.447Z,50.61
2024-05-09T00:22:53.912Z,50.49
2024-05-09T00:23:59.338Z,50.45
2024-05-09T00:25:04.769Z,50.49
2024-05-09T00:26:10.320Z,50.56
2024-05-09T00:27:16.245Z,50.5
2024-05-09T00:28:21.676Z,50.63
2024-05-09T00:29:27.576Z,50.8
2024-05-09T00:30:39.223Z,50.59
2024-05-09T00:31:44.693Z,50.82
2024-05-09T00:32:50.631Z,50.55
2024-05-09T00:33:56.561Z,50.55
2024-05-09T00:35:02.205Z,50.46
2024-05-09T00:36:07.633Z,50.73
2024-05-09T00:37:13.032Z,50.8
2024-05-09T00:38:18.635Z,50.46
2024-05-09T00:39:24.080Z,50.95
2024-05-09T00:40:44.443Z,50.66
2024-05-09T00:41:50.108Z,51.06
2024-05-09T00:42:55.504Z,51.14
2024-05-09T00:44:01.071Z,51.2
2024-05-09T00:45:06.509Z,51.19
2024-05-09T00:46:11.936Z,51.26
2024-05-09T00:47:17.649Z,51.03
2024-05-09T00:48:24.672Z,51.2
2024-05-09T00:49:30.478Z,51.2
2024-05-09T00:50:40.881Z,51.18
2024-05-09T00:51:46.905Z,51.17
2024-05-09T00:52:52.521Z,51.13
2024-05-09T00:53:57.885Z,51.17
2024-05-09T00:55:03.318Z,51.1
2024-05-09T00:56:08.868Z,51.11
2024-05-09T00:57:14.259Z,51.14
2024-05-09T00:58:19.751Z,51.04
2024-05-09T00:59:25.380Z,50.98
2024-05-09T01:00:42.988Z,51.12
2024-05-09T01:01:48.998Z,51.13
2024-05-09T01:02:54.855Z,51.13
2024-05-09T01:04:00.665Z,50.94
2024-05-09T01:05:06.464Z,51.19
2024-05-09T01:06:11.985Z,50.89
2024-05-09T01:07:17.394Z,51.19
2024-05-09T01:08:23.140Z,51.08
2024-05-09T01:09:28.568Z,51.17
2024-05-09T01:10:38.442Z,51.21
2024-05-09T01:11:44.180Z,51.11
2024-05-09T01:12:49.750Z,51.2
2024-05-09T01:13:55.334Z,50.9
2024-05-09T01:15:00.759Z,51.22
2024-05-09T01:16:06.218Z,50.89
2024-05-09T01:17:11.942Z,51.01
2024-05-09T01:18:18.228Z,51.13
2024-05-09T01:19:24.348Z,51.08
2024-05-09T01:20:46.281Z,51.14
2024-05-09T01:21:51.733Z,50.83
2024-05-09T01:22:57.261Z,50.99
2024-05-09T01:24:02.649Z,50.84
2024-05-09T01:25:08.083Z,50.99
2024-05-09T01:26:13.788Z,50.81
2024-05-09T01:27:19.202Z,50.72
2024-05-09T01:28:24.611Z,50.82
2024-05-09T01:29:30.342Z,50.77
2024-05-09T01:30:40.113Z,50.9
2024-05-09T01:31:45.921Z,50.92
2024-05-09T01:32:51.903Z,50.65
2024-05-09T01:33:58.104Z,50.57
2024-05-09T01:35:03.822Z,50.76
2024-05-09T01:36:09.227Z,50.53
2024-05-09T01:37:14.672Z,50.94
2024-05-09T01:38:20.627Z,50.97
2024-05-09T01:39:26.088Z,50.75
2024-05-09T01:40:41.910Z,50.89
2024-05-09T01:41:47.314Z,51.02
2024-05-09T01:42:52.746Z,50.98
2024-05-09T01:43:58.275Z,50.97
2024-05-09T01:45:03.741Z,51.03
2024-05-09T01:46:09.144Z,50.94
2024-05-09T01:47:14.886Z,50.75
2024-05-09T01:48:21.003Z,50.83
2024-05-09T01:49:27.135Z,51
2024-05-09T01:50:44.779Z,50.65
2024-05-09T01:51:50.186Z,50.81
2024-05-09T01:52:55.730Z,50.85
2024-05-09T01:54:01.133Z,50.88
2024-05-09T01:55:09.421Z,50.92
2024-05-09T01:56:15.027Z,50.65
2024-05-09T01:57:20.466Z,50.92
2024-05-09T01:58:25.886Z,50.7
2024-05-09T01:59:31.828Z,50.87
2024-05-09T02:00:45.158Z,50.52
2024-05-09T02:02:00.359Z,50.76
2024-05-09T02:03:06.641Z,50.88
2024-05-09T02:04:12.820Z,50.96
2024-05-09T02:05:19.261Z,50.88
2024-05-09T02:06:24.758Z,51.11
2024-05-09T02:07:30.227Z,51.08
2024-05-09T02:08:36.227Z,51.11
2024-05-09T02:09:41.645Z,51.09
2024-05-09T02:10:48.153Z,51.12
2024-05-09T02:11:54.198Z,51.14
2024-05-09T02:12:59.651Z,51.09
2024-05-09T02:14:05.236Z,51.11
2024-05-09T02:15:10.804Z,51.1
2024-05-09T02:16:16.207Z,51.09
2024-05-09T02:17:22.199Z,51.13
2024-05-09T02:18:28.255Z,51.13
2024-05-09T02:19:34.573Z,51.11
2024-05-09T02:20:40.431Z,51.24
2024-05-09T02:21:45.872Z,51.18
2024-05-09T02:22:51.426Z,51.21
2024-05-09T02:23:56.931Z,51.07
2024-05-09T02:25:02.323Z,51.19
2024-05-09T02:26:07.898Z,50.99
2024-05-09T02:27:15.524Z,51.13
2024-05-09T02:28:20.936Z,51.15
2024-05-09T02:29:26.704Z,51.03
2024-05-09T02:30:45.064Z,51.25
2024-05-09T02:31:50.885Z,51.08
2024-05-09T02:32:56.690Z,51.17
2024-05-09T02:34:02.908Z,51.03
2024-05-09T02:35:08.676Z,51.04
2024-05-09T02:36:14.120Z,50.94
2024-05-09T02:37:19.544Z,51.24
2024-05-09T02:38:25.054Z,51.24
2024-05-09T02:39:30.500Z,51.08
2024-05-09T02:40:42.069Z,51.18
2024-05-09T02:41:47.438Z,51.27
2024-05-09T02:42:52.824Z,51.27
2024-05-09T02:43:58.327Z,51.29
2024-05-09T02:45:03.718Z,51.03
2024-05-09T02:46:09.117Z,51.03
2024-05-09T02:47:14.999Z,51.16
2024-05-09T02:48:21.026Z,51.09
2024-05-09T02:49:27.013Z,51.27
2024-05-09T02:50:42.304Z,51.28
2024-05-09T02:51:47.829Z,51.28
2024-05-09T02:52:53.361Z,51.21
2024-05-09T02:53:58.796Z,51.2
2024-05-09T02:55:04.191Z,51.04
2024-05-09T02:56:09.896Z,51.01
2024-05-09T02:57:15.317Z,51.27
2024-05-09T02:58:20.757Z,51.27
2024-05-09T02:59:26.692Z,51.17
2024-05-09T03:00:44.308Z,51.15
2024-05-09T03:01:50.215Z,51.1
2024-05-09T03:02:56.338Z,51.17
2024-05-09T03:04:02.279Z,51.13
2024-05-09T03:05:07.970Z,51.09
2024-05-09T03:06:13.433Z,51.17
2024-05-09T03:07:21.815Z,51.48
2024-05-09T03:08:27.427Z,51.21
2024-05-09T03:09:32.861Z,51.08
2024-05-09T03:10:41.627Z,51.15
2024-05-09T03:11:47.760Z,51.48
2024-05-09T03:12:53.227Z,51.04
2024-05-09T03:13:58.722Z,51.43
2024-05-09T03:15:04.163Z,51.38
2024-05-09T03:16:09.561Z,51.3
2024-05-09T03:17:15.079Z,51.32
2024-05-09T03:18:20.799Z,51.66
2024-05-09T03:19:26.586Z,51.38
2024-05-09T03:20:38.793Z,51.66
2024-05-09T03:21:44.318Z,51.6
2024-05-09T03:22:49.851Z,51.23
2024-05-09T03:23:55.642Z,51.43
2024-05-09T03:25:01.068Z,51.17
2024-05-09T03:26:06.827Z,51.69
2024-05-09T03:27:12.241Z,51.73
2024-05-09T03:28:17.674Z,51.45
2024-05-09T03:29:23.317Z,51.76
2024-05-09T03:30:44.613Z,51.6
2024-05-09T03:31:50.397Z,51.51
2024-05-09T03:32:56.260Z,51.75
2024-05-09T03:34:02.315Z,51.26
2024-05-09T03:35:08.012Z,51.25
2024-05-09T03:36:14.240Z,51.38
2024-05-09T03:37:19.679Z,51.51
2024-05-09T03:38:25.328Z,51.2
2024-05-09T03:39:30.794Z,51.16
2024-05-09T03:40:36.251Z,51.49
2024-05-09T03:41:41.795Z,51.47
2024-05-09T03:42:47.256Z,51.38
2024-05-09T03:43:52.849Z,51.54
2024-05-09T03:44:58.343Z,51.43
2024-05-09T03:46:03.738Z,51.39
2024-05-09T03:47:09.494Z,51.49
2024-05-09T03:48:16.091Z,51.19
2024-05-09T03:49:22.230Z,51.09
2024-05-09T03:50:38.242Z,51.48
2024-05-09T03:51:43.846Z,51.33
2024-05-09T03:52:49.370Z,51.21
2024-05-09T03:53:54.790Z,51.18
2024-05-09T03:55:00.278Z,51.23
2024-05-09T03:56:05.784Z,51.34
2024-05-09T03:57:11.235Z,51.42
2024-05-09T03:58:16.624Z,51.27
2024-05-09T03:59:22.224Z,50.05
2024-05-09T04:00:41.353Z,46.51
2024-05-09T04:01:47.282Z,45.47
2024-05-09T04:02:53.311Z,44.71
2024-05-09T04:03:59.158Z,44.26
2024-05-09T04:05:04.712Z,43.69
2024-05-09T04:06:10.260Z,42.68
2024-05-09T04:07:15.672Z,42.71
2024-05-09T04:08:21.373Z,43.2
2024-05-09T04:09:26.938Z,42.62
2024-05-09T04:10:37.332Z,42.9
2024-05-09T04:11:43.214Z,42.63
2024-05-09T04:12:48.633Z,42.47
2024-05-09T04:13:54.329Z,42.67
2024-05-09T04:14:59.773Z,42.67
2024-05-09T04:16:05.196Z,42.53
2024-05-09T04:17:10.868Z,42.49
2024-05-09T04:18:16.595Z,42.43
2024-05-09T04:19:22.602Z,42.54
2024-05-09T04:20:42.716Z,42.36
2024-05-09T04:21:48.148Z,42.34
2024-05-09T04:22:53.643Z,42.06
2024-05-09T04:23:59.116Z,42.33
2024-05-09T04:25:04.568Z,42.32
2024-05-09T04:26:10.173Z,42.19
2024-05-09T04:27:15.582Z,42.31
2024-05-09T04:28:20.996Z,42.15
2024-05-09T04:29:26.740Z,42.17
2024-05-09T04:30:43.625Z,42.21
2024-05-09T04:31:49.475Z,42.08
2024-05-09T04:32:55.445Z,42.14
2024-05-09T04:34:01.450Z,42.06
2024-05-09T04:35:07.154Z,41.93
2024-05-09T04:36:12.586Z,42.05
2024-05-09T04:37:18.046Z,42.08
2024-05-09T04:38:23.652Z,41.99
2024-05-09T04:39:29.106Z,41.86
2024-05-09T04:40:39.654Z,41.92
2024-05-09T04:41:45.084Z,41.88
2024-05-09T04:42:52.937Z,41.91
2024-05-09T04:43:58.568Z,41.81
2024-05-09T04:45:03.998Z,41.86
2024-05-09T04:46:09.375Z,41.84
2024-05-09T04:47:15.491Z,41.77
2024-05-09T04:48:21.721Z,41.92
2024-05-09T04:49:27.732Z,41.7
2024-05-09T04:50:41.455Z,41.73
2024-05-09T04:51:46.948Z,41.68
2024-05-09T04:52:52.497Z,41.66
2024-05-09T04:53:57.941Z,41.65
2024-05-09T04:55:03.310Z,41.71
2024-05-09T04:56:08.957Z,41.58
2024-05-09T04:57:14.353Z,41.67
2024-05-09T04:58:19.737Z,41.47
2024-05-09T04:59:25.281Z,41.5
2024-05-09T05:00:42.123Z,41.66
2024-05-09T05:01:47.915Z,41.44
2024-05-09T05:02:53.924Z,41.65
2024-05-09T05:04:00.561Z,41.53
2024-05-09T05:05:06.587Z,41.62
2024-05-09T05:06:12.148Z,41.65
2024-05-09T05:07:17.566Z,41.54
2024-05-09T05:08:24.143Z,41.52
2024-05-09T05:09:29.526Z,41.53
2024-05-09T05:10:39.582Z,41.63
2024-05-09T05:11:45.405Z,41.58
2024-05-09T05:12:50.825Z,41.58
2024-05-09T05:13:56.398Z,41.58
2024-05-09T05:15:01.849Z,41.76
2024-05-09T05:16:07.272Z,41.61
2024-05-09T05:17:12.762Z,41.46
2024-05-09T05:18:19.087Z,41.33
2024-05-09T05:19:25.146Z,41.48
2024-05-09T05:20:36.753Z,41.38
2024-05-09T05:21:42.162Z,41.41
2024-05-09T05:22:47.682Z,41.54
2024-05-09T05:23:53.151Z,41.65
2024-05-09T05:25:01.492Z,41.61
2024-05-09T05:26:06.964Z,41.61
2024-05-09T05:27:12.434Z,41.51
2024-05-09T05:28:17.886Z,41.5
2024-05-09T05:29:23.966Z,41.73
2024-05-09T05:30:36.627Z,41.49
2024-05-09T05:31:42.102Z,41.55
2024-05-09T05:32:48.141Z,41.78
2024-05-09T05:33:53.902Z,41.49
2024-05-09T05:34:59.462Z,41.33
2024-05-09T05:36:04.917Z,41.4
2024-05-09T05:37:10.374Z,41.61
2024-05-09T05:38:16.023Z,41.54
2024-05-09T05:39:21.457Z,41.56
2024-05-09T05:40:40.973Z,41.61
2024-05-09T05:41:46.758Z,41.67
2024-05-09T05:42:52.187Z,41.69
2024-05-09T05:43:57.700Z,41.56
2024-05-09T05:45:04.598Z,41.58
2024-05-09T05:46:11.525Z,41.88
2024-05-09T05:47:17.307Z,41.64
2024-05-09T05:48:23.530Z,41.83
2024-05-09T05:49:29.381Z,41.78
2024-05-09T05:50:40.469Z,41.37
2024-05-09T05:51:45.942Z,41.49
2024-05-09T05:52:51.431Z,41.77
2024-05-09T05:53:56.983Z,41.58
2024-05-09T05:55:02.426Z,41.65
2024-05-09T05:56:08.061Z,41.32
2024-05-09T05:57:13.546Z,41.4
2024-05-09T05:58:18.962Z,41.56
2024-05-09T05:59:24.567Z,41.28
2024-05-09T06:00:42.539Z,41.28
2024-05-09T06:01:48.850Z,41.43
2024-05-09T06:02:54.832Z,41.28
2024-05-09T06:04:00.612Z,41.32
2024-05-09T06:05:06.400Z,41.47
2024-05-09T06:06:12.096Z,41.51
2024-05-09T06:07:17.525Z,41.42
2024-05-09T06:08:24.137Z,41.3
2024-05-09T06:09:30.594Z,41.19
2024-05-09T06:10:43.478Z,41.07
2024-05-09T06:11:49.339Z,41.11
2024-05-09T06:12:54.808Z,40.91
2024-05-09T06:14:00.386Z,41.01
2024-05-09T06:15:05.833Z,41.3
2024-05-09T06:16:11.248Z,41.44
2024-05-09T06:17:17.194Z,41.16
2024-05-09T06:18:23.723Z,41.28
2024-05-09T06:19:29.947Z,41.14
2024-05-09T06:20:40.615Z,41.43
2024-05-09T06:21:46.116Z,41.39
2024-05-09T06:22:51.601Z,41.05
2024-05-09T06:23:57.053Z,41.18
2024-05-09T06:25:02.553Z,41.17
2024-05-09T06:26:10.714Z,40.85
2024-05-09T06:27:16.130Z,41.1
2024-05-09T06:28:21.593Z,40.54
2024-05-09T06:29:27.345Z,40.73
2024-05-09T06:30:44.301Z,40.92
2024-05-09T06:31:49.810Z,41.18
2024-05-09T06:32:55.768Z,41.45
2024-05-09T06:34:01.838Z,40.83
2024-05-09T06:35:07.463Z,41.03
2024-05-09T06:36:12.979Z,41
2024-05-09T06:37:18.384Z,40.84
2024-05-09T06:38:23.970Z,40.86
2024-05-09T06:39:29.415Z,41.05
2024-05-09T06:40:44.957Z,41.06
2024-05-09T06:41:50.627Z,41.36
2024-05-09T06:42:56.056Z,41.3
2024-05-09T06:44:01.754Z,41.59
2024-05-09T06:45:07.239Z,40.87
2024-05-09T06:46:12.622Z,40.95
2024-05-09T06:47:18.378Z,41.14
2024-05-09T06:48:25.309Z,40.78
2024-05-09T06:49:31.437Z,41.01
2024-05-09T06:50:42.039Z,41.07
2024-05-09T06:51:47.555Z,41.01
2024-05-09T06:52:53.088Z,41.14
2024-05-09T06:53:58.523Z,41.09
2024-05-09T06:55:03.955Z,41.26
2024-05-09T06:56:09.460Z,41.1
2024-05-09T06:57:14.932Z,41.15
2024-05-09T06:58:20.312Z,41.37
2024-05-09T06:59:25.953Z,40.8
2024-05-09T07:00:43.459Z,41.09
2024-05-09T07:01:49.025Z,41.13
2024-05-09T07:02:54.827Z,41.21
2024-05-09T07:04:00.607Z,41.34
2024-05-09T07:05:06.655Z,41.37
2024-05-09T07:06:12.528Z,41.38
2024-05-09T07:07:17.947Z,41.3
2024-05-09T07:08:23.588Z,41.4
2024-05-09T07:09:29.097Z,41.26
2024-05-09T07:10:39.002Z,41.34
2024-05-09T07:11:44.819Z,41.43
2024-05-09T07:12:50.318Z,41.48
2024-05-09T07:13:55.868Z,41.53
2024-05-09T07:15:01.318Z,41.02
2024-05-09T07:16:06.816Z,40.73
2024-05-09T07:17:12.534Z,40.98
2024-05-09T07:18:21.845Z,41.2
2024-05-09T07:19:27.624Z,41.4
2024-05-09T07:20:37.885Z,41.17
2024-05-09T07:21:43.433Z,41.14
2024-05-09T07:22:48.945Z,41.21
2024-05-09T07:23:54.577Z,41.07
2024-05-09T07:24:59.983Z,40.92
2024-05-09T07:26:05.495Z,41.24
2024-05-09T07:27:13.905Z,41.22
2024-05-09T07:28:19.648Z,41.23
2024-05-09T07:29:25.393Z,41.21
2024-05-09T07:30:36.867Z,41.23
2024-05-09T07:31:42.266Z,41.32
2024-05-09T07:32:48.702Z,41.22
2024-05-09T07:33:54.931Z,41.38
2024-05-09T07:35:00.566Z,41.49
2024-05-09T07:36:06.029Z,41.34
2024-05-09T07:37:11.428Z,41.18
2024-05-09T07:38:17.052Z,41.17
2024-05-09T07:39:22.582Z,41.49
2024-05-09T07:40:38.643Z,40.98
2024-05-09T07:41:44.240Z,40.61
2024-05-09T07:42:49.683Z,40.8
2024-05-09T07:43:55.243Z,41.01
2024-05-09T07:45:52.059Z,40.42
2024-05-09T07:47:37.320Z,40.45
2024-05-09T07:53:21.444Z,40.77
2024-05-09T07:54:44.523Z,41
2024-05-09T07:55:50.394Z,40.97
2024-05-09T07:56:56.768Z,41.1
2024-05-09T07:58:02.464Z,41.09
2024-05-09T07:59:07.885Z,41.25
2024-05-09T08:00:29.454Z,41.06
2024-05-09T08:01:37.426Z,41.21
2024-05-09T08:02:43.112Z,41.14
2024-05-09T08:03:49.490Z,41.2
2024-05-09T08:04:55.555Z,41.07
2024-05-09T08:06:01.039Z,41.03
2024-05-09T08:07:06.669Z,41.09
2024-05-09T08:08:12.104Z,40.91
2024-05-09T08:09:23.684Z,40.58
2024-05-09T08:10:32.131Z,40.47
2024-05-09T08:11:37.700Z,40.91
2024-05-09T08:12:43.218Z,40.55
2024-05-09T08:13:48.625Z,40.12
2024-05-09T08:14:54.031Z,40.43
2024-05-09T08:15:59.604Z,40.69
2024-05-09T08:17:05.204Z,40.46
2024-05-09T08:18:11.010Z,40.27
2024-05-09T08:19:17.060Z,40.31
2024-05-09T08:20:36.864Z,40.07
2024-05-09T08:21:42.409Z,39.77
2024-05-09T08:22:50.809Z,40.52
2024-05-09T08:23:56.233Z,40.17
2024-05-09T08:25:01.751Z,40.22
2024-05-09T08:26:07.169Z,40.18
2024-05-09T08:27:13.321Z,40.14
2024-05-09T08:28:20.178Z,40.33
2024-05-09T08:29:25.605Z,40.37
2024-05-09T08:30:40.020Z,40.28
2024-05-09T08:31:45.835Z,40.25
2024-05-09T08:32:51.604Z,40.44
2024-05-09T08:33:57.803Z,40.43
2024-05-09T08:35:03.539Z,40.39
2024-05-09T08:36:08.951Z,40.21
2024-05-09T08:37:31.041Z,40.14
2024-05-09T08:38:40.443Z,40.05
2024-05-09T08:39:46.035Z,40.14
2024-05-09T08:40:51.911Z,39.96
2024-05-09T08:41:57.335Z,39.98
2024-05-09T08:43:03.204Z,39.48
2024-05-09T08:44:08.771Z,39.56
2024-05-09T08:45:14.204Z,39.93
2024-05-09T08:46:19.709Z,39.69
2024-05-09T08:47:25.574Z,39.57
2024-05-09T08:48:31.854Z,39.85
2024-05-09T08:49:42.237Z,39.45
2024-05-09T08:50:48.846Z,39.45
2024-05-09T08:51:54.542Z,39.69
2024-05-09T08:52:59.939Z,39.16
2024-05-09T08:54:05.324Z,39.25
2024-05-09T08:55:11.212Z,39.28
2024-05-09T08:56:16.755Z,39.38
2024-05-09T08:57:22.206Z,39.26
2024-05-09T08:58:27.729Z,39.26
2024-05-09T08:59:33.107Z,39.41
2024-05-09T09:00:40.956Z,39.08
2024-05-09T09:01:46.840Z,39.37
2024-05-09T09:02:52.477Z,39.53
2024-05-09T09:03:58.442Z,39.1
2024-05-09T09:05:04.310Z,39.28
2024-05-09T09:06:09.814Z,38.9
2024-05-09T09:07:15.494Z,38.86
2024-05-09T09:08:20.984Z,38.66
2024-05-09T09:09:26.487Z,39.16
2024-05-09T09:10:35.925Z,39.23
2024-05-09T09:11:41.621Z,39.32
2024-05-09T09:12:47.255Z,39.18
2024-05-09T09:13:52.761Z,39.2
2024-05-09T09:14:58.217Z,39.24
2024-05-09T09:16:04.080Z,39.26
2024-05-09T09:17:09.776Z,39.04
2024-05-09T09:18:15.729Z,39.09
2024-05-09T09:19:21.792Z,39.06
2024-05-09T09:20:38.523Z,39.04
2024-05-09T09:21:44.127Z,38.99
2024-05-09T09:22:49.555Z,39.39
2024-05-09T09:23:54.939Z,38.99
2024-05-09T09:25:00.419Z,38.99
2024-05-09T09:26:05.880Z,38.76
2024-05-09T09:27:11.325Z,38.75
2024-05-09T09:28:17.331Z,38.79
2024-05-09T09:29:22.835Z,38.5
2024-05-09T09:30:39.826Z,38.9
2024-05-09T09:31:45.356Z,38.92
2024-05-09T09:32:51.070Z,38.81
2024-05-09T09:33:57.291Z,38.7
2024-05-09T09:35:03.179Z,38.85
2024-05-09T09:36:13.970Z,38.52
2024-05-09T09:37:19.620Z,38.67
2024-05-09T09:38:25.138Z,38.45
2024-05-09T09:39:30.741Z,38.28
2024-05-09T09:40:48.375Z,38.31
2024-05-09T09:41:54.992Z,38.11
2024-05-09T09:43:00.634Z,38.35
2024-05-09T09:44:06.060Z,38.61
2024-05-09T09:45:13.653Z,38.45
2024-05-09T09:46:19.511Z,38.46
2024-05-09T09:47:25.209Z,38.44
2024-05-09T09:48:31.276Z,38.25
2024-05-09T09:49:36.964Z,38.38
2024-05-09T09:50:42.436Z,38.64
2024-05-09T09:51:48.004Z,38.67
2024-05-09T09:52:53.434Z,38.5
2024-05-09T09:53:58.824Z,38.5
2024-05-09T09:55:04.424Z,38.37
2024-05-09T09:56:09.853Z,38.43
2024-05-09T09:57:15.323Z,38.54
2024-05-09T09:58:21.420Z,38.33
2024-05-09T09:59:26.946Z,38.4
2024-05-09T10:00:36.803Z,38.52
2024-05-09T10:01:42.570Z,38.47
2024-05-09T10:02:48.118Z,38.34
2024-05-09T10:03:54.136Z,38.32
2024-05-09T10:05:00.022Z,38.41
2024-05-09T10:06:05.500Z,38.49
2024-05-09T10:07:11.222Z,38.48
2024-05-09T10:08:16.775Z,38.61
2024-05-09T10:09:22.216Z,38.52
2024-05-09T10:10:36.001Z,38.49
2024-05-09T10:11:57.994Z,38.51
2024-05-09T10:13:06.243Z,38.33
2024-05-09T10:14:11.859Z,38.2
2024-05-09T10:15:17.285Z,38.33
2024-05-09T10:16:23.333Z,38.15
2024-05-09T10:17:29.330Z,38.3
2024-05-09T10:18:37.603Z,38.28
2024-05-09T10:19:43.280Z,38.15
2024-05-09T10:20:48.790Z,38.17
2024-05-09T10:21:54.437Z,38.11
2024-05-09T10:22:59.913Z,38.17
2024-05-09T10:24:05.384Z,37.95
2024-05-09T10:25:10.904Z,38.23
2024-05-09T10:26:16.337Z,38.11
2024-05-09T10:27:21.728Z,38.64
2024-05-09T10:28:27.121Z,38.61
2024-05-09T10:29:32.543Z,38.16
2024-05-09T10:30:42.745Z,38.05
2024-05-09T10:31:49.264Z,37.66
2024-05-09T10:32:54.888Z,37.89
2024-05-09T10:34:01.230Z,37.85
2024-05-09T10:35:07.197Z,38.05
2024-05-09T10:36:12.688Z,37.54
2024-05-09T10:37:18.394Z,38
2024-05-09T10:38:23.882Z,38.04
2024-05-09T10:39:29.331Z,38.15
2024-05-09T10:40:35.148Z,38.04
2024-05-09T10:41:40.661Z,37.88
2024-05-09T10:42:46.213Z,37.83
2024-05-09T10:43:51.981Z,37.91
2024-05-09T10:44:57.419Z,37.78
2024-05-09T10:46:03.227Z,37.83
2024-05-09T10:47:08.900Z,37.96
2024-05-09T10:48:14.760Z,38.08
2024-05-09T10:49:20.786Z,37.89
2024-05-09T10:50:35.900Z,37.9
2024-05-09T10:51:41.545Z,37.84
2024-05-09T10:52:46.989Z,37.96
2024-05-09T10:53:52.408Z,37.82
2024-05-09T10:54:58.083Z,37.93
2024-05-09T10:56:03.572Z,37.9
2024-05-09T10:57:09.015Z,38.01
2024-05-09T10:58:14.893Z,37.93
2024-05-09T10:59:20.378Z,37.97
2024-05-09T11:00:37.972Z,37.9
2024-05-09T11:01:43.954Z,37.96
2024-05-09T11:02:49.563Z,37.7
2024-05-09T11:03:55.727Z,37.83
2024-05-09T11:05:01.509Z,37.71
2024-05-09T11:06:07.505Z,37.95
2024-05-09T11:07:13.284Z,37.89
2024-05-09T11:08:18.816Z,37.28
2024-05-09T11:09:24.211Z,37.6
2024-05-09T11:10:36.804Z,37.3
2024-05-09T11:11:42.350Z,37.28
2024-05-09T11:12:47.949Z,37.67
2024-05-09T11:13:53.388Z,37.91
2024-05-09T11:14:58.796Z,37.55
2024-05-09T11:16:04.686Z,37.09
2024-05-09T11:17:10.464Z,37.22
2024-05-09T11:18:16.318Z,37.12
2024-05-09T11:19:22.735Z,37.12
2024-05-09T11:20:36.802Z,37.37
2024-05-09T11:21:42.726Z,37.25
2024-05-09T11:22:48.266Z,37.21
2024-05-09T11:23:53.737Z,37.05
2024-05-09T11:24:59.316Z,37.16
2024-05-09T11:26:04.770Z,36.94
2024-05-09T11:27:10.160Z,36.89
2024-05-09T11:28:16.084Z,37.04
2024-05-09T11:29:22.638Z,36.9
2024-05-09T11:30:34.812Z,36.83
2024-05-09T11:31:40.514Z,37.1
2024-05-09T11:32:46.278Z,36.95
2024-05-09T11:33:52.115Z,36.98
2024-05-09T11:34:57.536Z,36.74
2024-05-09T11:36:02.997Z,36.95
2024-05-09T11:37:08.537Z,37
2024-05-09T11:38:14.044Z,37.11
2024-05-09T11:39:19.506Z,37.09
2024-05-09T11:40:35.994Z,37.03
2024-05-09T11:41:41.456Z,37.05
2024-05-09T11:42:48.739Z,37.05
2024-05-09T11:43:55.344Z,36.99
2024-05-09T11:45:00.736Z,37.08
2024-05-09T11:46:07.265Z,37.18
2024-05-09T11:47:12.851Z,36.93
2024-05-09T11:48:18.567Z,36.88
2024-05-09T11:49:28.589Z,37.1
2024-05-09T11:50:38.926Z,37.33
2024-05-09T11:51:44.578Z,37.09
2024-05-09T11:52:50.028Z,36.93
2024-05-09T11:53:55.446Z,37.13
2024-05-09T11:55:01.022Z,36.82
2024-05-09T11:56:06.705Z,37.14
2024-05-09T11:57:12.118Z,36.98
2024-05-09T11:58:18.403Z,37.12
2024-05-09T11:59:24.519Z,37.15
2024-05-09T12:00:39.606Z,37
2024-05-09T12:01:45.484Z,36.67
2024-05-09T12:02:51.055Z,36.44
2024-05-09T12:03:57.242Z,37.09
2024-05-09T12:05:03.241Z,37.79
2024-05-09T12:06:09.145Z,37.5
2024-05-09T12:07:15.881Z,37.57
2024-05-09T12:08:21.427Z,37.58
2024-05-09T12:09:26.834Z,37.65
2024-05-09T12:10:38.705Z,37.57
2024-05-09T12:11:44.259Z,37.53
2024-05-09T12:12:50.762Z,37.72
2024-05-09T12:13:56.222Z,37.67
2024-05-09T12:15:01.646Z,37.84
2024-05-09T12:16:07.310Z,37.72
2024-05-09T12:17:12.912Z,37.98
2024-05-09T12:18:18.593Z,38.16
2024-05-09T12:19:24.248Z,38.3
2024-05-09T12:20:41.619Z,38.44
2024-05-09T12:21:47.137Z,38.62
2024-05-09T12:22:52.679Z,38.44
2024-05-09T12:23:58.055Z,38.7
2024-05-09T12:25:03.707Z,38.76
2024-05-09T12:26:09.154Z,38.84
2024-05-09T12:27:14.543Z,38.99
2024-05-09T12:28:20.450Z,38.74
2024-05-09T12:29:26.069Z,38.9
2024-05-09T12:30:42.642Z,38.91
2024-05-09T12:31:48.303Z,38.85
2024-05-09T12:32:54.344Z,39.04
2024-05-09T12:34:00.316Z,39.16
2024-05-09T12:35:05.769Z,39.33
2024-05-09T12:36:11.195Z,39.63
2024-05-09T12:37:16.921Z,39.57
2024-05-09T12:38:22.336Z,39.72
2024-05-09T12:39:27.784Z,39.86
2024-05-09T12:40:41.141Z,39.8
2024-05-09T12:41:46.574Z,39.86
2024-05-09T12:42:52.123Z,39.96
2024-05-09T12:43:57.636Z,40.06
2024-05-09T12:45:03.114Z,40.1
2024-05-09T12:46:08.707Z,40.03
2024-05-09T12:47:14.256Z,40.15
2024-05-09T12:48:20.134Z,40.12
2024-05-09T12:49:26.113Z,40.08
2024-05-09T12:50:37.172Z,40.14
2024-05-09T12:51:42.732Z,40.23
2024-05-09T12:52:48.164Z,40.29
2024-05-09T12:53:53.607Z,40.35
2024-05-09T12:54:59.238Z,40.45
2024-05-09T12:56:09.548Z,40.5
2024-05-09T12:57:15.087Z,40.54
2024-05-09T12:58:21.102Z,40.53
2024-05-09T12:59:26.618Z,40.53
2024-05-09T13:00:37.510Z,40.66
2024-05-09T13:01:43.356Z,40.77
2024-05-09T13:02:48.885Z,40.7
2024-05-09T13:03:55.263Z,40.7
2024-05-09T13:05:01.293Z,40.66
2024-05-09T13:06:06.883Z,40.52
2024-05-09T13:07:12.413Z,40.58
2024-05-09T13:08:17.913Z,40.59
2024-05-09T13:09:23.340Z,40.56
2024-05-09T13:10:35.876Z,40.59
2024-05-09T13:11:41.576Z,40.64
2024-05-09T13:12:47.044Z,40.71
2024-05-09T13:13:52.468Z,40.78
2024-05-09T13:14:57.911Z,40.72
2024-05-09T13:16:03.595Z,40.7
2024-05-09T13:17:09.179Z,40.87
2024-05-09T13:18:14.993Z,40.77
2024-05-09T13:19:20.653Z,40.79
2024-05-09T13:20:37.499Z,40.83
2024-05-09T13:21:43.087Z,40.85
2024-05-09T13:22:48.521Z,40.91
2024-05-09T13:23:54.220Z,40.87
2024-05-09T13:25:00.008Z,40.75
2024-05-09T13:26:05.452Z,40.81
2024-05-09T13:27:10.851Z,40.83
2024-05-09T13:28:16.653Z,40.8
2024-05-09T13:29:22.346Z,40.89
2024-05-09T13:30:43.625Z,40.97
2024-05-09T13:31:49.063Z,41.06
2024-05-09T13:32:54.866Z,41.07
2024-05-09T13:34:00.773Z,41.01
2024-05-09T13:35:06.339Z,41.07
2024-05-09T13:36:11.793Z,41.1
2024-05-09T13:37:17.350Z,41.11
2024-05-09T13:38:23.502Z,41.17
2024-05-09T13:39:28.925Z,41.16
2024-05-09T13:40:38.667Z,41.18
2024-05-09T13:41:44.086Z,41.11
2024-05-09T13:42:51.520Z,41.13
2024-05-09T13:43:56.952Z,41.16
2024-05-09T13:45:02.337Z,41.3
2024-05-09T13:46:07.904Z,41.24
2024-05-09T13:47:13.547Z,41.23
2024-05-09T13:48:19.929Z,41.22
2024-05-09T13:49:25.749Z,41.22
2024-05-09T13:50:38.637Z,41.28
2024-05-09T13:51:44.154Z,41.29
2024-05-09T13:52:49.595Z,41.3
2024-05-09T13:53:54.978Z,41.34
2024-05-09T13:55:00.541Z,41.23
2024-05-09T13:56:06.026Z,41.2
2024-05-09T13:57:11.410Z,41.35
2024-05-09T13:58:17.059Z,41.29
2024-05-09T13:59:22.556Z,41.33
2024-05-09T14:00:41.634Z,41.3
2024-05-09T14:01:52.502Z,41.28
2024-05-09T14:02:58.270Z,41.33
2024-05-09T14:04:04.474Z,41.34
2024-05-09T14:05:10.640Z,41.04
2024-05-09T14:06:16.257Z,41.16
2024-05-09T14:07:21.777Z,41.26
2024-05-09T14:08:27.232Z,41.05
2024-05-09T14:09:32.712Z,41.07
2024-05-09T14:10:38.560Z,41.24
2024-05-09T14:11:44.177Z,41.16
2024-05-09T14:12:49.690Z,41.29
2024-05-09T14:13:55.183Z,41.25
2024-05-09T14:15:00.576Z,41.36
2024-05-09T14:16:06.363Z,41.41
2024-05-09T14:17:11.983Z,41.42
2024-05-09T14:18:18.046Z,41.43
2024-05-09T14:19:23.782Z,41.35
2024-05-09T14:20:34.682Z,41.3
2024-05-09T14:21:40.329Z,41.21
2024-05-09T14:22:45.769Z,41.34
2024-05-09T14:23:51.194Z,41.44
2024-05-09T14:24:56.761Z,41.22
2024-05-09T14:26:02.161Z,41.21
2024-05-09T14:27:07.557Z,41.28
2024-05-09T14:28:14.496Z,41.38